createdAt,value
2022-12-03T00:00:22.603Z,97030.61
2022-12-03T00:03:11.029Z,97033.36
2022-12-03T00:05:41.876Z,97042.83
2022-12-03T00:08:17.053Z,97048.75
2022-12-03T00:10:45.307Z,97047.36
2022-12-03T00:13:13.560Z,97051.36
2022-12-03T00:15:41.868Z,97054.90
2022-12-03T00:18:10.177Z,97057.17
2022-12-03T00:20:38.441Z,97058.66
2022-12-03T00:23:06.664Z,97060.03
2022-12-03T00:25:35.043Z,97062.09
2022-12-03T00:28:03.369Z,97064.70
2022-12-03T00:30:31.607Z,97068.69
2022-12-03T00:32:59.881Z,97068.90
2022-12-03T00:35:29.695Z,97073.73
2022-12-03T00:37:57.968Z,97074.09
2022-12-03T00:40:26.238Z,97076.95
2022-12-03T00:42:54.486Z,97075.86
2022-12-03T00:45:22.793Z,97080.48
2022-12-03T00:47:51.075Z,97079.27
2022-12-03T00:50:19.383Z,97085.98
2022-12-03T00:52:47.592Z,97083.08
2022-12-03T00:55:16.676Z,97083.23
2022-12-03T00:57:44.965Z,97084.16
2022-12-03T01:00:13.870Z,97084.41
2022-12-03T01:02:42.195Z,97088.05
2022-12-03T01:05:10.574Z,97083.16
2022-12-03T01:07:38.910Z,97086.20
2022-12-03T01:10:07.893Z,97087.52
2022-12-03T01:12:36.239Z,97081.92
2022-12-03T01:15:05.666Z,97079.80
2022-12-03T01:17:33.942Z,97083.61
2022-12-03T01:20:03.326Z,97083.25
2022-12-03T01:22:31.613Z,97079.66
2022-12-03T01:24:59.886Z,97081.75
2022-12-03T01:27:28.119Z,97079.06
2022-12-03T01:29:56.314Z,97074.78
2022-12-03T01:32:24.505Z,97073.06
2022-12-03T01:34:55.594Z,97071.13
2022-12-03T01:37:26.054Z,97069.58
2022-12-03T01:39:54.541Z,97066.48
2022-12-03T01:42:26.375Z,97074.46
2022-12-03T01:44:58.327Z,97075.77
2022-12-03T01:47:31.822Z,97076.61
2022-12-03T01:50:11.687Z,97076.41
2022-12-03T01:52:41.020Z,97077.23
2022-12-03T01:55:18.148Z,97074.36
2022-12-03T01:57:50.245Z,97070.63
2022-12-03T02:00:21.777Z,97068.55
2022-12-03T02:02:53.535Z,97072.77
2022-12-03T02:05:27.734Z,97072.61
2022-12-03T02:07:56.854Z,97070.91
2022-12-03T02:10:36.325Z,97069.42
2022-12-03T02:13:11.105Z,97067.70
2022-12-03T02:15:40.583Z,97067.89
2022-12-03T02:18:10.047Z,97062.17
2022-12-03T02:21:05.000Z,97057.44
2022-12-03T02:23:42.994Z,97058.98
2022-12-03T02:26:11.357Z,97061.02
2022-12-03T02:28:39.974Z,97067.33
2022-12-03T02:31:08.527Z,97072.84
2022-12-03T02:33:36.925Z,97072.89
2022-12-03T02:36:05.720Z,97068.91
2022-12-03T02:38:35.840Z,97072.65
2022-12-03T02:41:08.583Z,97073.60
2022-12-03T02:43:37.106Z,97075.55
2022-12-03T02:46:08.748Z,97074.52
2022-12-03T02:48:40.138Z,97078.01
2022-12-03T02:51:11.038Z,97080.41
2022-12-03T02:53:42.616Z,97078.55
2022-12-03T02:56:14.183Z,97078.65
2022-12-03T02:58:45.224Z,97079.83
2022-12-03T03:01:15.661Z,97076.01
2022-12-03T03:03:45.823Z,97076.21
2022-12-03T03:06:15.940Z,97081.47
2022-12-03T03:08:44.341Z,97084.30
2022-12-03T03:11:12.754Z,97082.16
2022-12-03T03:13:41.240Z,97081.31
2022-12-03T03:16:10.067Z,97081.94
2022-12-03T03:18:38.824Z,97084.31
2022-12-03T03:21:07.236Z,97084.12
2022-12-03T03:23:35.451Z,97084.63
2022-12-03T03:26:08.941Z,97081.92
2022-12-03T03:28:40.427Z,97085.20
2022-12-03T03:31:11.443Z,97085.33
2022-12-03T03:33:41.771Z,97086.27
2022-12-03T03:36:10.409Z,97088.40
2022-12-03T03:38:39.428Z,97084.49
2022-12-03T03:41:09.504Z,97085.08
2022-12-03T03:43:39.058Z,97087.15
2022-12-03T03:46:08.140Z,97087.01
2022-12-03T03:48:36.708Z,97092.59
2022-12-03T03:51:09.756Z,97091.88
2022-12-03T03:53:44.457Z,97092.91
2022-12-03T03:56:12.788Z,97094.59
2022-12-03T03:58:41.397Z,97090.34
2022-12-03T04:01:12.694Z,97089.38
2022-12-03T04:03:41.341Z,97090.44
2022-12-03T04:06:10.059Z,97091.66
2022-12-03T04:08:38.252Z,97095.50
2022-12-03T04:11:25.382Z,97092.09
2022-12-03T04:13:53.663Z,97094.50
2022-12-03T04:16:22.014Z,97096.52
2022-12-03T04:18:50.982Z,97101.13
2022-12-03T04:21:41.136Z,97103.37
2022-12-03T04:24:11.288Z,97103.71
2022-12-03T04:26:58.100Z,97101.10
2022-12-03T04:29:26.389Z,97103.77
2022-12-03T04:32:13.045Z,97100.42
2022-12-03T04:34:59.694Z,97098.15
2022-12-03T04:37:28.042Z,97099.34
2022-12-03T04:39:56.308Z,97096.62
2022-12-03T04:42:24.516Z,97099.52
2022-12-03T04:44:53.163Z,97103.39
2022-12-03T04:47:22.059Z,97102.67
2022-12-03T04:49:51.841Z,97105.02
2022-12-03T04:52:21.251Z,97106.35
2022-12-03T04:54:49.488Z,97104.80
2022-12-03T04:57:18.037Z,97108.21
2022-12-03T04:59:46.331Z,97109.66
2022-12-03T05:02:14.734Z,97107.34
2022-12-03T05:04:43.936Z,97107.52
2022-12-03T05:07:12.430Z,97103.60
2022-12-03T05:09:40.651Z,97104.76
2022-12-03T05:12:08.940Z,97106.75
2022-12-03T05:14:37.247Z,97106.45
2022-12-03T05:17:05.593Z,97111.43
2022-12-03T05:19:52.243Z,97109.27
2022-12-03T05:22:20.486Z,97110.70
2022-12-03T05:24:48.720Z,97112.56
2022-12-03T05:27:23.187Z,97109.17
2022-12-03T05:29:53.048Z,97110.02
2022-12-03T05:32:21.444Z,97112.37
2022-12-03T05:34:49.756Z,97116.71
2022-12-03T05:37:17.995Z,97121.38
2022-12-03T05:39:46.212Z,97120.19
2022-12-03T05:42:33.211Z,97120.33
2022-12-03T05:45:01.412Z,97116.45
2022-12-03T05:47:29.645Z,97121.43
2022-12-03T05:49:57.950Z,97120.92
2022-12-03T05:52:26.137Z,97127.05
2022-12-03T05:54:55.474Z,97127.29
2022-12-03T05:57:24.012Z,97127.20
2022-12-03T05:59:52.210Z,97131.80
2022-12-03T06:02:20.639Z,97131.08
2022-12-03T06:04:49.305Z,97130.14
2022-12-03T06:07:17.555Z,97131.08
2022-12-03T06:09:46.201Z,97128.64
2022-12-03T06:12:14.481Z,97130.42
2022-12-03T06:14:42.718Z,97131.98
2022-12-03T06:17:11.068Z,97131.61
2022-12-03T06:19:39.352Z,97136.88
2022-12-03T06:22:07.622Z,97137.19
2022-12-03T06:24:35.849Z,97138.55
2022-12-03T06:27:05.488Z,97142.75
2022-12-03T06:29:33.768Z,97145.03
2022-12-03T06:32:02.362Z,97146.25
2022-12-03T06:34:31.038Z,97145.07
2022-12-03T06:36:59.308Z,97147.93
2022-12-03T06:39:27.752Z,97152.45
2022-12-03T06:41:56.043Z,97151.83
2022-12-03T06:44:24.359Z,97150.02
2022-12-03T06:46:52.770Z,97151.01
2022-12-03T06:49:21.225Z,97153.10
2022-12-03T06:51:49.458Z,97152.31
2022-12-03T06:54:17.769Z,97155.19
2022-12-03T06:56:47.260Z,97157.91
2022-12-03T06:59:15.564Z,97155.86
2022-12-03T07:01:43.812Z,97157.88
2022-12-03T07:04:12.110Z,97159.58
2022-12-03T07:06:40.288Z,97155.65
2022-12-03T07:09:08.554Z,97156.64
2022-12-03T07:11:40.635Z,97154.56
2022-12-03T07:14:11.388Z,97151.48
2022-12-03T07:16:40.634Z,97154.80
2022-12-03T07:19:09.877Z,97150.75
2022-12-03T07:21:38.547Z,97149.44
2022-12-03T07:24:07.104Z,97144.92
2022-12-03T07:26:35.717Z,97147.20
2022-12-03T07:29:04.304Z,97150.83
2022-12-03T07:31:32.706Z,97155.98
2022-12-03T07:34:02.448Z,97156.91
2022-12-03T07:36:30.744Z,97154.83
2022-12-03T07:38:58.992Z,97158.69
2022-12-03T07:41:27.290Z,97157.77
2022-12-03T07:43:55.545Z,97158.80
2022-12-03T07:46:23.955Z,97159.27
2022-12-03T07:48:52.308Z,97161.09
2022-12-03T07:51:20.576Z,97163.16
2022-12-03T07:53:48.863Z,97166.83
2022-12-03T07:56:17.071Z,97165.63
2022-12-03T07:58:45.300Z,97168.27
2022-12-03T08:01:13.712Z,97168.92
2022-12-03T08:03:43.167Z,97161.99
2022-12-03T08:06:11.470Z,97163.00
2022-12-03T08:08:40.102Z,97160.27
2022-12-03T08:11:14.004Z,97156.87
2022-12-03T08:13:42.626Z,97157.15
2022-12-03T08:16:17.003Z,97159.20
2022-12-03T08:18:46.638Z,97161.41
2022-12-03T08:21:18.293Z,97161.29
2022-12-03T08:23:46.625Z,97155.73
2022-12-03T08:26:23.293Z,97157.94
2022-12-03T08:28:53.204Z,97160.02
2022-12-03T08:31:32.280Z,97161.24
2022-12-03T08:34:21.070Z,97164.10
2022-12-03T08:36:59.330Z,97168.83
2022-12-03T08:39:37.995Z,97169.23
2022-12-03T08:42:43.344Z,97169.31
2022-12-03T08:45:29.719Z,97167.21
2022-12-03T08:48:18.853Z,97169.27
2022-12-03T08:50:47.586Z,97170.21
2022-12-03T08:53:38.516Z,97172.23
2022-12-03T08:56:23.838Z,97173.10
2022-12-03T08:59:31.079Z,97176.24
2022-12-03T09:01:59.980Z,97175.77
2022-12-03T09:04:46.308Z,97173.86
2022-12-03T09:07:14.546Z,97168.28
2022-12-03T09:09:42.794Z,97166.82
2022-12-03T09:12:11.013Z,97169.48
2022-12-03T09:14:39.324Z,97172.93
2022-12-03T09:17:07.741Z,97174.54
2022-12-03T09:19:38.978Z,97173.44
2022-12-03T09:22:09.632Z,97171.65
2022-12-03T09:24:37.934Z,97166.80
2022-12-03T09:27:06.148Z,97165.05
2022-12-03T09:29:34.515Z,97164.73
2022-12-03T09:32:02.918Z,97165.80
2022-12-03T09:34:31.273Z,97161.45
2022-12-03T09:36:59.622Z,97161.77
2022-12-03T09:39:27.876Z,97161.41
2022-12-03T09:41:56.351Z,97157.81
2022-12-03T09:44:24.708Z,97158.64
2022-12-03T09:46:53.036Z,97156.65
2022-12-03T09:49:21.398Z,97156.03
2022-12-03T09:51:49.693Z,97155.38
2022-12-03T09:54:26.256Z,97154.55
2022-12-03T09:56:55.989Z,97154.63
2022-12-03T09:59:27.269Z,97153.09
2022-12-03T10:01:55.947Z,97154.39
2022-12-03T10:04:24.859Z,97152.70
2022-12-03T10:06:53.235Z,97145.29
2022-12-03T10:09:27.506Z,97139.15
2022-12-03T10:11:57.486Z,97144.75
2022-12-03T10:14:26.362Z,97143.81
2022-12-03T10:16:55.255Z,97140.42
2022-12-03T10:19:29.032Z,97138.52
2022-12-03T10:21:58.072Z,97139.27
2022-12-03T10:24:32.381Z,97133.52
2022-12-03T10:27:04.310Z,97135.34
2022-12-03T10:29:35.498Z,97139.83
2022-12-03T10:32:08.028Z,97137.64
2022-12-03T10:34:37.776Z,97137.36
2022-12-03T10:37:13.491Z,97136.27
2022-12-03T10:39:56.857Z,97132.42
2022-12-03T10:42:31.555Z,97135.10
2022-12-03T10:45:19.576Z,97135.96
2022-12-03T10:48:11.089Z,97130.63
2022-12-03T10:50:48.702Z,97128.51
2022-12-03T10:53:17.958Z,97127.11
2022-12-03T10:55:47.866Z,97126.46
2022-12-03T10:58:21.680Z,97126.70
2022-12-03T11:00:52.030Z,97127.34
2022-12-03T11:03:26.634Z,97123.02
2022-12-03T11:05:56.549Z,97120.61
2022-12-03T11:08:28.000Z,97123.89
2022-12-03T11:11:07.338Z,97121.55
2022-12-03T11:13:35.594Z,97112.12
2022-12-03T11:16:08.389Z,97104.53
2022-12-03T11:18:36.875Z,97107.48
2022-12-03T11:21:17.002Z,97108.71
2022-12-03T11:23:46.020Z,97104.90
2022-12-03T11:26:19.497Z,97103.44
2022-12-03T11:28:53.144Z,97099.64
2022-12-03T11:31:46.712Z,97104.91
2022-12-03T11:34:18.192Z,97103.08
2022-12-03T11:37:11.020Z,97107.60
2022-12-03T11:39:45.013Z,97104.09
2022-12-03T11:42:28.129Z,97103.20
2022-12-03T11:45:19.122Z,97102.94
2022-12-03T11:48:02.317Z,97108.31
2022-12-03T11:50:40.100Z,97108.93
2022-12-03T11:53:13.337Z,97108.45
2022-12-03T11:55:47.375Z,97106.20
2022-12-03T11:58:30.605Z,97110.86
2022-12-03T12:01:01.777Z,97112.33
2022-12-03T12:03:35.922Z,97112.61
2022-12-03T12:06:09.824Z,97111.63
2022-12-03T12:08:59.229Z,97113.02
2022-12-03T12:11:32.711Z,97112.33
2022-12-03T12:14:04.941Z,97112.30
2022-12-03T12:16:50.851Z,97114.70
2022-12-03T12:20:10.608Z,97108.73
2022-12-03T12:22:39.511Z,97106.80
2022-12-03T12:25:29.613Z,97105.12
2022-12-03T12:27:57.883Z,97109.73
2022-12-03T12:30:26.193Z,97106.61
2022-12-03T12:33:33.365Z,97104.17
2022-12-03T12:36:08.346Z,97105.70
2022-12-03T12:38:36.664Z,97106.11
2022-12-03T12:41:10.038Z,97105.13
2022-12-03T12:43:39.673Z,97104.47
2022-12-03T12:46:46.167Z,97110.88
2022-12-03T12:49:02.432Z,97110.85
2022-12-03T12:51:30.917Z,97111.29
2022-12-03T12:53:59.215Z,97107.70
2022-12-03T12:56:32.282Z,97112.52
2022-12-03T12:59:15.745Z,97110.64
2022-12-03T13:01:46.012Z,97110.21
2022-12-03T13:04:17.101Z,97111.15
2022-12-03T13:06:46.987Z,97111.73
2022-12-03T13:09:21.813Z,97113.80
2022-12-03T13:11:54.497Z,97112.10
2022-12-03T13:14:24.162Z,97109.90
2022-12-03T13:16:55.372Z,97111.29
2022-12-03T13:19:29.644Z,97112.05
2022-12-03T13:22:02.005Z,97115.94
2022-12-03T13:24:43.943Z,97114.16
2022-12-03T13:27:17.886Z,97116.14
2022-12-03T13:30:00.831Z,97113.19
2022-12-03T13:32:35.082Z,97115.89
2022-12-03T13:35:12.220Z,97116.00
2022-12-03T13:37:40.506Z,97116.98
2022-12-03T13:40:35.085Z,97119.55
2022-12-03T13:43:12.843Z,97117.60
2022-12-03T13:45:44.232Z,97120.38
2022-12-03T13:48:21.790Z,97119.11
2022-12-03T13:50:52.877Z,97119.25
2022-12-03T13:53:37.621Z,97121.02
2022-12-03T13:56:21.037Z,97116.86
2022-12-03T13:58:49.448Z,97114.48
2022-12-03T14:01:17.818Z,97118.30
2022-12-03T14:03:46.215Z,97120.94
2022-12-03T14:06:14.594Z,97131.36
2022-12-03T14:08:42.914Z,97135.23
2022-12-03T14:11:31.292Z,97136.30
2022-12-03T14:13:59.679Z,97139.48
2022-12-03T14:16:28.061Z,97141.06
2022-12-03T14:18:56.319Z,97147.16
2022-12-03T14:21:24.608Z,97148.06
2022-12-03T14:23:53.092Z,97147.80
2022-12-03T14:26:21.326Z,97145.13
2022-12-03T14:28:49.570Z,97146.37
2022-12-03T14:31:17.888Z,97146.11
2022-12-03T14:33:46.201Z,97146.56
2022-12-03T14:36:14.480Z,97146.09
2022-12-03T14:38:42.813Z,97149.65
2022-12-03T14:41:30.950Z,97146.64
2022-12-03T14:43:59.162Z,97147.86
2022-12-03T14:46:27.429Z,97145.70
2022-12-03T14:48:55.669Z,97153.00
2022-12-03T14:51:23.969Z,97154.02
2022-12-03T14:53:52.223Z,97153.63
2022-12-03T14:56:20.673Z,97152.64
2022-12-03T14:58:48.940Z,97160.23
2022-12-03T15:01:17.237Z,97157.37
2022-12-03T15:03:45.571Z,97159.27
2022-12-03T15:06:13.828Z,97165.66
2022-12-03T15:08:42.183Z,97167.77
2022-12-03T15:11:10.598Z,97169.20
2022-12-03T15:13:38.954Z,97165.04
2022-12-03T15:16:07.686Z,97167.77
2022-12-03T15:18:35.991Z,97166.80
2022-12-03T15:21:04.254Z,97165.48
2022-12-03T15:23:32.529Z,97167.52
2022-12-03T15:26:00.895Z,97165.73
2022-12-03T15:28:29.211Z,97168.66
2022-12-03T15:30:57.738Z,97172.68
2022-12-03T15:33:26.121Z,97172.40
2022-12-03T15:35:54.447Z,97174.83
2022-12-03T15:38:22.770Z,97170.48
2022-12-03T15:40:51.057Z,97169.75
2022-12-03T15:43:19.679Z,97170.70
2022-12-03T15:45:48.123Z,97177.46
2022-12-03T15:48:16.463Z,97178.65
2022-12-03T15:50:44.643Z,97181.31
2022-12-03T15:53:12.913Z,97178.94
2022-12-03T15:55:41.214Z,97183.46
2022-12-03T15:58:09.543Z,97184.87
2022-12-03T16:00:37.904Z,97190.14
2022-12-03T16:03:06.194Z,97184.86
2022-12-03T16:05:34.518Z,97185.20
2022-12-03T16:08:02.970Z,97186.41
2022-12-03T16:10:31.474Z,97187.52
2022-12-03T16:12:59.621Z,97184.73
2022-12-03T16:15:27.834Z,97183.19
2022-12-03T16:17:56.085Z,97181.35
2022-12-03T16:20:24.313Z,97182.09
2022-12-03T16:22:52.677Z,97179.85
2022-12-03T16:25:21.060Z,97176.98
2022-12-03T16:27:49.399Z,97176.27
2022-12-03T16:30:18.203Z,97172.70
2022-12-03T16:32:46.485Z,97175.74
2022-12-03T16:35:14.853Z,97176.76
2022-12-03T16:37:43.126Z,97178.52
2022-12-03T16:40:12.187Z,97181.94
2022-12-03T16:42:40.951Z,97182.84
2022-12-03T16:45:09.767Z,97179.59
2022-12-03T16:47:38.326Z,97183.04
2022-12-03T16:50:11.594Z,97183.73
2022-12-03T16:52:42.835Z,97185.63
2022-12-03T16:55:11.121Z,97186.01
2022-12-03T16:57:39.372Z,97189.02
2022-12-03T17:00:08.260Z,97190.42
2022-12-03T17:02:36.589Z,97193.64
2022-12-03T17:05:05.174Z,97192.09
2022-12-03T17:07:33.486Z,97192.67
2022-12-03T17:10:01.761Z,97192.73
2022-12-03T17:12:42.205Z,97194.16
2022-12-03T17:15:16.399Z,97192.88
2022-12-03T17:17:44.686Z,97192.69
2022-12-03T17:20:14.883Z,97196.66
2022-12-03T17:22:43.308Z,97195.95
2022-12-03T17:25:11.881Z,97200.39
2022-12-03T17:27:45.174Z,97195.81
2022-12-03T17:30:14.605Z,97195.27
2022-12-03T17:32:43.440Z,97198.29
2022-12-03T17:35:12.427Z,97198.65
2022-12-03T17:37:41.067Z,97199.58
2022-12-03T17:40:11.852Z,97200.68
2022-12-03T17:42:40.118Z,97202.23
2022-12-03T17:45:09.152Z,97200.76
2022-12-03T17:47:37.505Z,97206.50
2022-12-03T17:50:07.509Z,97209.06
2022-12-03T17:52:35.809Z,97204.73
2022-12-03T17:55:16.288Z,97205.71
2022-12-03T17:57:52.187Z,97206.43
2022-12-03T18:00:20.569Z,97205.98
2022-12-03T18:02:48.819Z,97205.52
2022-12-03T18:05:17.159Z,97201.84
2022-12-03T18:07:45.498Z,97203.37
2022-12-03T18:10:13.690Z,97203.46
2022-12-03T18:12:41.939Z,97204.77
2022-12-03T18:15:10.720Z,97203.83
2022-12-03T18:17:39.004Z,97205.73
2022-12-03T18:20:07.753Z,97201.46
2022-12-03T18:22:36.427Z,97203.58
2022-12-03T18:25:05.360Z,97204.08
2022-12-03T18:27:33.973Z,97201.05
2022-12-03T18:30:02.311Z,97201.34
2022-12-03T18:32:30.661Z,97199.84
2022-12-03T18:34:58.925Z,97201.25
2022-12-03T18:37:28.972Z,97205.70
2022-12-03T18:39:58.301Z,97204.17
2022-12-03T18:42:27.244Z,97205.06
2022-12-03T18:44:56.674Z,97207.46
2022-12-03T18:47:28.901Z,97208.00
2022-12-03T18:49:57.769Z,97209.89
2022-12-03T18:52:26.335Z,97208.62
2022-12-03T18:54:55.484Z,97208.79
2022-12-03T18:57:23.983Z,97204.88
2022-12-03T18:59:52.281Z,97210.15
2022-12-03T19:05:10.521Z,97208.44
2022-12-03T19:07:38.938Z,97204.96
2022-12-03T19:10:07.999Z,97203.61
2022-12-03T19:12:37.280Z,97202.96
2022-12-03T19:15:06.356Z,97205.03
2022-12-03T19:17:34.653Z,97206.66
2022-12-03T19:20:03.386Z,97203.56
2022-12-03T19:22:31.703Z,97199.77
2022-12-03T19:24:59.963Z,97198.18
2022-12-03T19:27:31.833Z,97198.50
2022-12-03T19:30:00.116Z,97198.79
2022-12-03T19:32:28.463Z,97199.84
2022-12-03T19:34:56.750Z,97199.02
2022-12-03T19:37:25.140Z,97199.82
2022-12-03T19:39:54.650Z,97199.60
2022-12-03T19:42:23.238Z,97202.95
2022-12-03T19:44:51.491Z,97203.56
2022-12-03T19:47:20.037Z,97208.86
2022-12-03T19:49:48.322Z,97210.98
2022-12-03T19:52:16.592Z,97211.98
2022-12-03T19:54:44.873Z,97210.06
2022-12-03T19:57:15.769Z,97208.08
2022-12-03T19:59:46.447Z,97211.86
2022-12-03T20:02:14.789Z,97210.17
2022-12-03T20:04:43.577Z,97212.61
2022-12-03T20:07:11.782Z,97208.38
2022-12-03T20:09:40.014Z,97209.08
2022-12-03T20:12:08.201Z,97210.48
2022-12-03T20:14:36.443Z,97213.99
2022-12-03T20:17:04.791Z,97214.59
2022-12-03T20:19:33.086Z,97217.04
2022-12-03T20:22:03.017Z,97214.42
2022-12-03T20:24:31.488Z,97214.66
2022-12-03T20:26:59.725Z,97211.65
2022-12-03T20:29:27.921Z,97209.66
2022-12-03T20:31:56.358Z,97210.73
2022-12-03T20:34:24.711Z,97210.40
2022-12-03T20:36:52.955Z,97209.81
2022-12-03T20:39:21.194Z,97210.73
2022-12-03T20:41:49.710Z,97210.27
2022-12-03T20:44:20.992Z,97209.88
2022-12-03T20:46:49.704Z,97210.83
2022-12-03T20:49:18.283Z,97211.36
2022-12-03T20:51:47.432Z,97214.13
2022-12-03T20:54:15.733Z,97217.05
2022-12-03T20:56:44.064Z,97216.73
2022-12-03T20:59:15.543Z,97215.84
2022-12-03T21:01:44.260Z,97215.01
2022-12-03T21:04:18.214Z,97211.60
2022-12-03T21:06:46.516Z,97213.32
2022-12-03T21:09:14.788Z,97213.05
2022-12-03T21:11:43.908Z,97211.00
2022-12-03T21:14:12.586Z,97212.20
2022-12-03T21:19:31.352Z,97211.16
2022-12-03T21:22:00.434Z,97215.00
2022-12-03T21:24:30.316Z,97216.33
2022-12-03T21:26:58.977Z,97216.02
2022-12-03T21:29:27.171Z,97215.68
2022-12-03T21:31:55.427Z,97212.55
2022-12-03T21:34:24.236Z,97216.50
2022-12-03T21:36:52.960Z,97217.23
2022-12-03T21:39:21.265Z,97218.52
2022-12-03T21:42:36.170Z,97219.21
2022-12-03T21:44:38.583Z,97214.48
2022-12-03T21:47:12.689Z,97216.93
2022-12-03T21:49:43.346Z,97215.95
2022-12-03T21:52:11.979Z,97215.78
2022-12-03T21:54:40.215Z,97215.92
2022-12-03T21:57:08.556Z,97215.42
2022-12-03T21:59:36.874Z,97214.69
2022-12-03T22:02:05.316Z,97214.61
2022-12-03T22:04:33.753Z,97215.05
2022-12-03T22:07:02.368Z,97214.86
2022-12-03T22:09:31.870Z,97215.07
2022-12-03T22:12:01.526Z,97211.78
2022-12-03T22:14:30.576Z,97208.77
2022-12-03T22:17:02.452Z,97207.20
2022-12-03T22:19:31.796Z,97203.42
2022-12-03T22:22:00.695Z,97204.77
2022-12-03T22:24:29.504Z,97206.77
2022-12-03T22:26:57.857Z,97205.42
2022-12-03T22:29:26.152Z,97206.63
2022-12-03T22:31:54.484Z,97207.14
2022-12-03T22:34:22.759Z,97207.39
2022-12-03T22:36:50.962Z,97209.48
2022-12-03T22:39:19.255Z,97206.15
2022-12-03T22:41:47.547Z,97199.48
2022-12-03T22:44:15.897Z,97197.83
2022-12-03T22:46:44.343Z,97197.96
2022-12-03T22:49:13.760Z,97203.48
2022-12-03T22:51:46.370Z,97203.38
2022-12-03T22:54:18.160Z,97204.94
2022-12-03T22:56:49.213Z,97197.88
2022-12-03T22:59:17.564Z,97196.11
2022-12-03T23:01:45.950Z,97195.90
2022-12-03T23:04:14.468Z,97197.88
2022-12-03T23:06:43.736Z,97197.83
2022-12-03T23:09:12.041Z,97193.17
2022-12-03T23:11:40.416Z,97188.17
2022-12-03T23:14:08.626Z,97189.42
2022-12-03T23:16:37.032Z,97189.91
2022-12-03T23:19:05.479Z,97188.93
2022-12-03T23:21:35.289Z,97185.55
2022-12-03T23:24:05.539Z,97186.89
2022-12-03T23:26:36.852Z,97189.04
2022-12-03T23:29:06.724Z,97183.38
2022-12-03T23:31:35.696Z,97182.70
2022-12-03T23:34:04.724Z,97184.71
2022-12-03T23:36:36.042Z,97185.27
2022-12-03T23:39:06.851Z,97182.52
2022-12-03T23:41:36.231Z,97183.76
2022-12-03T23:44:07.078Z,97182.64
2022-12-03T23:46:39.624Z,97178.69
2022-12-03T23:49:07.987Z,97180.33
2022-12-03T23:51:36.932Z,97185.64
2022-12-03T23:54:05.202Z,97184.81
2022-12-03T23:56:37.315Z,97183.14
2022-12-03T23:59:05.718Z,97181.97
